Time;durP1;ratioP1;P1;durP2;ratioP2;P2;SDS_P1;SDS_P2;PMS_P1;PMS_P2;Temp;Humidity;BMP_temperature;BMP_pressure;BME280_temperature;BME280_humidity;BME280_pressure;Samples;Min_cycle;Max_cycle;Signal;HPM_P1;HPM_P2
2022/12/07 00:02:22;;;;;;;9.38;2.10;;;;;;;;;;5113815;28;20118;-69
2022/12/07 00:04:49;;;;;;;9.98;1.70;;;;;;;;;;5097417;28;20040;-69
2022/12/07 00:07:15;;;;;;;4.88;1.20;;;;;;;;;;5092048;28;20044;-68
2022/12/07 00:09:41;;;;;;;7.50;1.33;;;;;;;;;;5104385;28;20410;-69
2022/12/07 00:12:07;;;;;;;5.63;1.13;;;;;;;;;;5112782;28;20043;-69
2022/12/07 00:14:33;;;;;;;6.15;1.20;;;;;;;;;;5112504;28;20061;-69
2022/12/07 00:16:59;;;;;;;6.53;1.40;;;;;;;;;;5113288;28;20114;-69
2022/12/07 00:19:25;;;;;;;10.93;1.40;;;;;;;;;;5112471;28;20098;-69
2022/12/07 00:21:51;;;;;;;4.72;1.48;;;;;;;;;;5112491;28;20039;-69
2022/12/07 00:24:18;;;;;;;5.57;1.65;;;;;;;;;;5113517;28;20126;-69
2022/12/07 00:26:45;;;;;;;5.97;1.20;;;;;;;;;;5112050;28;20531;-69
2022/12/07 00:29:17;;;;;;;6.72;1.38;;;;;;;;;;5112759;28;20079;-69
2022/12/07 00:31:43;;;;;;;6.15;1.40;;;;;;;;;;5113161;28;20814;-69
2022/12/07 00:34:12;;;;;;;8.57;1.55;;;;;;;;;;5113737;28;20101;-70
2022/12/07 00:36:38;;;;;;;9.02;1.42;;;;;;;;;;5111800;28;20429;-69
2022/12/07 00:39:04;;;;;;;6.78;1.33;;;;;;;;;;5111988;28;20059;-69
2022/12/07 00:41:31;;;;;;;8.32;1.75;;;;;;;;;;5113043;28;20039;-69
2022/12/07 00:43:57;;;;;;;8.10;1.60;;;;;;;;;;5113671;28;20466;-69
2022/12/07 00:46:24;;;;;;;5.00;1.63;;;;;;;;;;5112594;28;20039;-69
2022/12/07 00:48:50;;;;;;;14.68;2.25;;;;;;;;;;5112327;28;20043;-69
2022/12/07 00:51:17;;;;;;;8.82;1.60;;;;;;;;;;5111540;28;20043;-69
2022/12/07 00:53:43;;;;;;;9.77;1.60;;;;;;;;;;5112889;28;20070;-69
2022/12/07 00:56:12;;;;;;;7.13;1.80;;;;;;;;;;5113108;28;20111;-69
2022/12/07 00:58:38;;;;;;;5.82;1.58;;;;;;;;;;5113128;28;20096;-69
2022/12/07 01:01:05;;;;;;;15.02;2.38;;;;;;;;;;5112578;28;20047;-69
2022/12/07 01:03:31;;;;;;;5.28;1.60;;;;;;;;;;5108592;28;20053;-69
2022/12/07 01:05:58;;;;;;;7.85;1.73;;;;;;;;;;5091046;28;20086;-69
2022/12/07 01:08:24;;;;;;;8.88;1.48;;;;;;;;;;5091024;28;20490;-69
2022/12/07 01:10:57;;;;;;;6.05;1.33;;;;;;;;;;5112917;28;20134;-69
2022/12/07 01:13:23;;;;;;;8.07;1.60;;;;;;;;;;5112921;28;20043;-69
2022/12/07 01:15:49;;;;;;;12.23;1.80;;;;;;;;;;5112429;28;20529;-69
2022/12/07 01:18:15;;;;;;;5.25;1.42;;;;;;;;;;5112369;28;20131;-69
2022/12/07 01:20:41;;;;;;;7.70;1.27;;;;;;;;;;5112532;28;20039;-69
2022/12/07 01:23:07;;;;;;;6.50;1.50;;;;;;;;;;5110755;28;20666;-69
2022/12/07 01:25:33;;;;;;;7.90;1.50;;;;;;;;;;5112408;28;20122;-69
2022/12/07 01:27:59;;;;;;;7.50;1.35;;;;;;;;;;5110990;28;20082;-69
2022/12/07 01:30:25;;;;;;;12.35;2.28;;;;;;;;;;5111930;28;20047;-69
2022/12/07 01:32:52;;;;;;;6.32;1.08;;;;;;;;;;5112006;28;20035;-69
2022/12/07 01:35:18;;;;;;;7.50;1.73;;;;;;;;;;5111405;28;20057;-69
2022/12/07 01:37:44;;;;;;;6.25;1.65;;;;;;;;;;5111667;28;20043;-69
2022/12/07 01:40:10;;;;;;;8.38;1.13;;;;;;;;;;5111187;28;20075;-69
2022/12/07 01:42:36;;;;;;;6.38;1.40;;;;;;;;;;5111989;28;20089;-69
2022/12/07 01:45:21;;;;;;;6.22;0.90;;;;;;;;;;5110869;28;20484;-69
2022/12/07 01:47:50;;;;;;;6.55;1.10;;;;;;;;;;5112197;28;20040;-69
2022/12/07 01:50:16;;;;;;;5.88;1.10;;;;;;;;;;5112231;28;20043;-69
2022/12/07 01:52:44;;;;;;;8.15;1.27;;;;;;;;;;5111288;28;20554;-69
2022/12/07 01:55:12;;;;;;;8.73;1.45;;;;;;;;;;5110677;28;20043;-69
2022/12/07 01:57:40;;;;;;;6.88;1.10;;;;;;;;;;5111395;28;20035;-69
2022/12/07 02:00:07;;;;;;;5.05;0.85;;;;;;;;;;5110638;28;20059;-69
2022/12/07 02:02:44;;;;;;;5.22;1.25;;;;;;;;;;5110171;28;20145;-69
2022/12/07 02:05:11;;;;;;;8.98;1.70;;;;;;;;;;5093640;28;20032;-69
2022/12/07 02:07:38;;;;;;;10.75;2.30;;;;;;;;;;5106757;28;20521;-69
2022/12/07 02:10:18;;;;;;;7.63;2.40;;;;;;;;;;5102139;28;20036;-69
2022/12/07 02:12:45;;;;;;;8.35;2.88;;;;;;;;;;5104366;28;20083;-69
2022/12/07 02:15:11;;;;;;;11.38;2.92;;;;;;;;;;5110025;28;20086;-69
2022/12/07 02:17:56;;;;;;;12.35;5.15;;;;;;;;;;5111520;28;20378;-69
2022/12/07 02:20:28;;;;;;;10.82;3.72;;;;;;;;;;5111859;28;20074;-69
2022/12/07 02:22:54;;;;;;;9.40;3.90;;;;;;;;;;5111821;28;20443;-69
2022/12/07 02:25:34;;;;;;;13.75;4.70;;;;;;;;;;5111768;28;20114;-69
2022/12/07 02:28:06;;;;;;;15.65;4.72;;;;;;;;;;5110724;28;20122;-69
2022/12/07 02:30:34;;;;;;;12.07;4.95;;;;;;;;;;5109890;28;20036;-69
2022/12/07 02:33:15;;;;;;;10.90;4.47;;;;;;;;;;5110627;28;20047;-69
2022/12/07 02:36:01;;;;;;;10.20;3.70;;;;;;;;;;5111888;28;20071;-69
2022/12/07 02:38:27;;;;;;;13.93;3.67;;;;;;;;;;5111495;28;20127;-69
2022/12/07 02:40:55;;;;;;;9.27;3.50;;;;;;;;;;5093385;28;20092;-69
2022/12/07 02:43:25;;;;;;;12.95;3.08;;;;;;;;;;5111619;28;20447;-69
2022/12/07 02:45:53;;;;;;;9.10;2.63;;;;;;;;;;5112018;28;20369;-69
2022/12/07 02:48:20;;;;;;;13.27;2.72;;;;;;;;;;5111946;28;20509;-69
2022/12/07 02:50:48;;;;;;;9.48;2.50;;;;;;;;;;5109854;28;20065;-69
2022/12/07 02:53:30;;;;;;;7.35;2.22;;;;;;;;;;5110179;28;20084;-69
2022/12/07 02:55:56;;;;;;;8.85;2.30;;;;;;;;;;5110562;28;20043;-69
2022/12/07 02:58:41;;;;;;;7.93;2.28;;;;;;;;;;5111421;28;20050;-69
2022/12/07 03:01:36;;;;;;;6.25;2.00;;;;;;;;;;5111548;28;20035;-70
2022/12/07 03:04:09;;;;;;;7.82;2.00;;;;;;;;;;5085021;28;20047;-69
2022/12/07 03:06:39;;;;;;;5.00;1.50;;;;;;;;;;5089542;28;20538;-69
2022/12/07 03:09:12;;;;;;;7.18;1.42;;;;;;;;;;5098269;28;20035;-69
2022/12/07 03:11:44;;;;;;;10.18;1.50;;;;;;;;;;5115527;28;20035;-69
2022/12/07 03:14:16;;;;;;;9.63;1.60;;;;;;;;;;5115148;28;20100;-69
2022/12/07 03:16:53;;;;;;;5.57;1.38;;;;;;;;;;5114383;28;20753;-69
2022/12/07 03:19:20;;;;;;;4.85;1.02;;;;;;;;;;5115432;28;20075;-69
2022/12/07 03:22:03;;;;;;;8.65;1.25;;;;;;;;;;5114956;28;20036;-69
2022/12/07 03:24:31;;;;;;;5.55;1.25;;;;;;;;;;5115422;28;20047;-69
2022/12/07 03:27:03;;;;;;;5.25;1.10;;;;;;;;;;5115191;28;20374;-69
2022/12/07 03:29:31;;;;;;;7.13;1.10;;;;;;;;;;5114994;28;20558;-69
2022/12/07 03:32:02;;;;;;;9.75;1.35;;;;;;;;;;5115190;28;20039;-69
2022/12/07 03:34:32;;;;;;;7.05;1.00;;;;;;;;;;5115219;28;20077;-69
2022/12/07 03:37:01;;;;;;;6.47;1.00;;;;;;;;;;5114631;28;20085;-69
2022/12/07 03:39:31;;;;;;;7.22;1.20;;;;;;;;;;5113854;28;20035;-69
2022/12/07 03:41:58;;;;;;;7.38;1.15;;;;;;;;;;5115172;28;20111;-69
2022/12/07 03:44:24;;;;;;;9.52;1.30;;;;;;;;;;5114720;28;20043;-69
2022/12/07 03:47:05;;;;;;;8.27;1.20;;;;;;;;;;5113678;28;20084;-69
2022/12/07 03:49:51;;;;;;;8.15;1.42;;;;;;;;;;5113478;28;20483;-69
2022/12/07 03:52:26;;;;;;;7.35;1.10;;;;;;;;;;5114676;28;20039;-69
2022/12/07 03:54:52;;;;;;;5.30;0.70;;;;;;;;;;5113106;28;20122;-69
2022/12/07 03:57:19;;;;;;;7.53;1.00;;;;;;;;;;5114261;28;20652;-69
2022/12/07 03:59:45;;;;;;;6.10;0.90;;;;;;;;;;5114607;28;20075;-69
2022/12/07 04:02:13;;;;;;;11.60;1.35;;;;;;;;;;5113078;28;20412;-69
2022/12/07 04:04:39;;;;;;;8.50;1.38;;;;;;;;;;5098717;28;20417;-69
2022/12/07 04:07:05;;;;;;;5.55;0.95;;;;;;;;;;5092773;28;20530;-69
2022/12/07 04:09:31;;;;;;;6.10;0.88;;;;;;;;;;5103543;28;20035;-69
2022/12/07 04:11:57;;;;;;;3.25;1.02;;;;;;;;;;5112882;28;20043;-69
2022/12/07 04:14:24;;;;;;;8.35;1.10;;;;;;;;;;5114390;28;20092;-69
2022/12/07 04:16:51;;;;;;;6.28;0.77;;;;;;;;;;5114162;28;20035;-69
2022/12/07 04:19:18;;;;;;;7.07;1.33;;;;;;;;;;5114236;28;20047;-69
2022/12/07 04:21:44;;;;;;;6.10;1.35;;;;;;;;;;5113403;28;20040;-69
2022/12/07 04:24:11;;;;;;;6.57;1.10;;;;;;;;;;5114037;28;20651;-69
2022/12/07 04:26:37;;;;;;;2.65;0.82;;;;;;;;;;5112783;28;20482;-69
2022/12/07 04:29:03;;;;;;;8.68;1.10;;;;;;;;;;5113767;28;20050;-69
2022/12/07 04:31:29;;;;;;;7.88;1.23;;;;;;;;;;5113984;28;20042;-69
2022/12/07 04:33:56;;;;;;;6.20;0.90;;;;;;;;;;5113748;28;20474;-69
2022/12/07 04:36:22;;;;;;;4.28;0.90;;;;;;;;;;5113400;28;20039;-69
2022/12/07 04:38:48;;;;;;;6.75;0.93;;;;;;;;;;5113516;28;20119;-69
2022/12/07 04:41:14;;;;;;;5.45;0.85;;;;;;;;;;5113867;28;20603;-69
2022/12/07 04:43:40;;;;;;;5.72;0.98;;;;;;;;;;5113290;28;20048;-69
2022/12/07 04:46:06;;;;;;;13.05;1.27;;;;;;;;;;5113461;28;20079;-69
2022/12/07 04:48:32;;;;;;;6.28;1.00;;;;;;;;;;5113902;28;20536;-69
2022/12/07 04:50:58;;;;;;;4.65;0.88;;;;;;;;;;5112074;28;20043;-69
2022/12/07 04:53:25;;;;;;;7.80;1.10;;;;;;;;;;5112418;28;20127;-69
2022/12/07 04:55:51;;;;;;;10.45;1.13;;;;;;;;;;5113649;28;20040;-69
2022/12/07 04:58:17;;;;;;;7.60;1.05;;;;;;;;;;5113135;28;20048;-69
2022/12/07 05:00:43;;;;;;;15.45;1.27;;;;;;;;;;5113138;28;20127;-69
2022/12/07 05:03:09;;;;;;;4.22;0.80;;;;;;;;;;5111906;28;20073;-69
2022/12/07 05:05:35;;;;;;;8.35;1.23;;;;;;;;;;5091140;28;20051;-69
2022/12/07 05:08:01;;;;;;;10.90;1.13;;;;;;;;;;5091658;28;20044;-69
2022/12/07 05:10:27;;;;;;;8.00;0.98;;;;;;;;;;5091688;28;20048;-69
2022/12/07 05:12:53;;;;;;;5.63;1.25;;;;;;;;;;5092472;28;20052;-69
2022/12/07 05:15:19;;;;;;;5.63;0.65;;;;;;;;;;5091487;28;20126;-69
2022/12/07 05:17:45;;;;;;;3.80;0.82;;;;;;;;;;5092546;28;20090;-69
2022/12/07 05:20:11;;;;;;;7.32;0.88;;;;;;;;;;5092455;28;20040;-69
2022/12/07 05:22:37;;;;;;;4.85;0.85;;;;;;;;;;5092659;28;20036;-69
2022/12/07 05:25:03;;;;;;;8.13;1.02;;;;;;;;;;5093666;28;20599;-69
2022/12/07 05:27:29;;;;;;;7.15;0.88;;;;;;;;;;5112607;28;20043;-69
2022/12/07 05:29:55;;;;;;;7.28;1.10;;;;;;;;;;5112951;28;20446;-69
2022/12/07 05:32:21;;;;;;;8.05;0.90;;;;;;;;;;5112151;28;20040;-69
2022/12/07 05:34:47;;;;;;;6.05;0.95;;;;;;;;;;5112863;28;20046;-69
2022/12/07 05:37:13;;;;;;;5.30;0.90;;;;;;;;;;5111740;28;20118;-69
2022/12/07 05:39:42;;;;;;;5.88;0.80;;;;;;;;;;5111940;28;20059;-69
2022/12/07 05:42:12;;;;;;;6.90;0.90;;;;;;;;;;5112682;28;20385;-69
2022/12/07 05:44:41;;;;;;;4.78;1.15;;;;;;;;;;5112997;28;20046;-69
2022/12/07 05:47:07;;;;;;;4.07;0.90;;;;;;;;;;5113002;28;20067;-69
2022/12/07 05:49:34;;;;;;;2.92;0.80;;;;;;;;;;5112732;28;20040;-69
2022/12/07 05:51:59;;;;;;;8.98;1.42;;;;;;;;;;5111346;28;20132;-69
2022/12/07 05:54:26;;;;;;;6.65;1.10;;;;;;;;;;5112733;28;20044;-69
2022/12/07 05:56:52;;;;;;;8.05;1.25;;;;;;;;;;5112224;28;20069;-69
2022/12/07 05:59:24;;;;;;;4.90;0.68;;;;;;;;;;5111312;28;20043;-69
2022/12/07 06:01:51;;;;;;;9.10;1.35;;;;;;;;;;5112620;28;20118;-69
2022/12/07 06:04:17;;;;;;;7.40;1.23;;;;;;;;;;5100214;28;20661;-69
2022/12/07 06:06:43;;;;;;;11.00;0.95;;;;;;;;;;5092010;28;20044;-69
2022/12/07 06:09:09;;;;;;;4.32;0.77;;;;;;;;;;5098543;28;20085;-69
2022/12/07 06:14:20;;;;;;;8.48;1.10;;;;;;;;;;5105706;28;20452;-68
2022/12/07 06:16:46;;;;;;;6.65;0.93;;;;;;;;;;5112346;28;20466;-69
2022/12/07 06:19:12;;;;;;;5.53;0.70;;;;;;;;;;5093957;28;20381;-68
2022/12/07 06:21:38;;;;;;;2.58;0.80;;;;;;;;;;5114180;28;20574;-68
2022/12/07 06:24:04;;;;;;;8.13;1.50;;;;;;;;;;5111911;28;20051;-68
2022/12/07 06:26:31;;;;;;;7.95;1.90;;;;;;;;;;5111625;28;20058;-69
2022/12/07 06:28:57;;;;;;;7.60;1.75;;;;;;;;;;5111162;28;20424;-69
2022/12/07 06:31:23;;;;;;;10.05;1.55;;;;;;;;;;5094264;28;20043;-69
2022/12/07 06:33:49;;;;;;;8.15;1.80;;;;;;;;;;5112149;28;20080;-69
2022/12/07 06:36:15;;;;;;;8.07;1.00;;;;;;;;;;5110762;28;20447;-69
2022/12/07 06:38:41;;;;;;;9.35;1.15;;;;;;;;;;5111509;28;20118;-69
2022/12/07 06:41:07;;;;;;;7.80;1.13;;;;;;;;;;5110531;28;20050;-69
2022/12/07 06:43:33;;;;;;;7.07;1.20;;;;;;;;;;5111714;28;20529;-69
2022/12/07 06:45:59;;;;;;;6.40;1.60;;;;;;;;;;5115249;28;20035;-69
2022/12/07 06:48:25;;;;;;;5.55;1.65;;;;;;;;;;5115677;28;20054;-69
2022/12/07 06:50:51;;;;;;;6.63;0.90;;;;;;;;;;5114750;28;20460;-69
2022/12/07 06:53:17;;;;;;;10.85;1.80;;;;;;;;;;5114928;28;20454;-69
2022/12/07 06:55:43;;;;;;;6.18;1.40;;;;;;;;;;5114224;28;20043;-69
2022/12/07 06:58:09;;;;;;;5.53;0.98;;;;;;;;;;5115886;28;20047;-69
2022/12/07 07:00:35;;;;;;;2.80;0.90;;;;;;;;;;5115699;28;20127;-69
2022/12/07 07:03:01;;;;;;;5.93;1.10;;;;;;;;;;5114083;28;20036;-69
2022/12/07 07:05:27;;;;;;;9.82;1.60;;;;;;;;;;5114178;28;20426;-69
2022/12/07 07:07:53;;;;;;;4.93;0.80;;;;;;;;;;5115887;28;20078;-68
2022/12/07 07:10:19;;;;;;;5.40;1.23;;;;;;;;;;5114365;28;20063;-69
2022/12/07 07:12:45;;;;;;;6.50;1.05;;;;;;;;;;5113945;28;20100;-69
2022/12/07 07:15:12;;;;;;;12.82;1.60;;;;;;;;;;5115998;28;20042;-70
2022/12/07 07:17:38;;;;;;;10.25;1.45;;;;;;;;;;5115250;28;20059;-69
2022/12/07 07:20:04;;;;;;;8.38;1.55;;;;;;;;;;5102595;28;20446;-68
2022/12/07 07:22:30;;;;;;;8.88;1.13;;;;;;;;;;5115785;28;20118;-68
2022/12/07 07:24:56;;;;;;;6.90;1.25;;;;;;;;;;5114923;28;20050;-69
2022/12/07 07:27:22;;;;;;;8.35;1.63;;;;;;;;;;5109844;28;20047;-69
2022/12/07 07:29:48;;;;;;;7.22;1.15;;;;;;;;;;5116370;28;20466;-69
2022/12/07 07:32:14;;;;;;;12.18;1.48;;;;;;;;;;5116203;28;20059;-69
2022/12/07 07:34:40;;;;;;;6.05;1.15;;;;;;;;;;5105571;28;20043;-68
2022/12/07 07:37:06;;;;;;;7.18;1.20;;;;;;;;;;5114241;28;20122;-68
2022/12/07 07:39:32;;;;;;;16.45;2.35;;;;;;;;;;5113292;28;20126;-68
2022/12/07 07:41:58;;;;;;;8.85;1.60;;;;;;;;;;5114240;28;20032;-67
2022/12/07 07:44:24;;;;;;;7.30;1.48;;;;;;;;;;5115810;28;20818;-66
2022/12/07 07:46:50;;;;;;;7.20;1.65;;;;;;;;;;5108613;28;20039;-67
2022/12/07 07:49:16;;;;;;;10.73;1.65;;;;;;;;;;5110326;28;20034;-66
2022/12/07 07:51:43;;;;;;;10.88;1.58;;;;;;;;;;5114609;28;20122;-65
2022/12/07 07:54:09;;;;;;;8.52;1.45;;;;;;;;;;5109519;28;20044;-66
2022/12/07 07:56:35;;;;;;;12.88;2.33;;;;;;;;;;5111793;28;20054;-65
2022/12/07 07:59:01;;;;;;;12.32;2.60;;;;;;;;;;5114694;28;20042;-66
2022/12/07 08:01:27;;;;;;;6.05;1.38;;;;;;;;;;5105396;28;20048;-67
2022/12/07 08:03:53;;;;;;;6.90;1.25;;;;;;;;;;5113721;28;20036;-69
2022/12/07 08:06:19;;;;;;;9.63;1.17;;;;;;;;;;5113856;28;20071;-69
2022/12/07 08:08:45;;;;;;;6.30;1.50;;;;;;;;;;5115710;28;20040;-67
2022/12/07 08:11:11;;;;;;;6.22;1.25;;;;;;;;;;5114355;28;20138;-68
2022/12/07 08:13:37;;;;;;;8.23;1.48;;;;;;;;;;5115527;28;20462;-69
2022/12/07 08:16:08;;;;;;;8.43;1.58;;;;;;;;;;5113910;28;20063;-68
2022/12/07 08:18:38;;;;;;;5.65;1.30;;;;;;;;;;5114160;28;20059;-69
2022/12/07 08:21:04;;;;;;;5.40;1.00;;;;;;;;;;5112612;28;20043;-68
2022/12/07 08:23:31;;;;;;;11.68;1.63;;;;;;;;;;5113384;28;20043;-69
2022/12/07 08:26:04;;;;;;;6.45;1.20;;;;;;;;;;5112895;28;20062;-67
2022/12/07 08:28:32;;;;;;;8.10;1.88;;;;;;;;;;5113121;28;20043;-68
2022/12/07 08:31:24;;;;;;;8.13;1.27;;;;;;;;;;5115949;28;20413;-68
2022/12/07 08:33:50;;;;;;;10.95;2.33;;;;;;;;;;5109385;28;20048;-68
2022/12/07 08:36:17;;;;;;;10.48;2.60;;;;;;;;;;5112149;28;20083;-68
2022/12/07 08:38:43;;;;;;;6.95;1.10;;;;;;;;;;5110250;28;20040;-68
2022/12/07 08:41:09;;;;;;;8.85;1.38;;;;;;;;;;5109950;28;20101;-68
2022/12/07 08:43:35;;;;;;;7.68;1.45;;;;;;;;;;5114814;28;20048;-68
2022/12/07 08:46:06;;;;;;;8.77;1.75;;;;;;;;;;5111473;28;20047;-68
2022/12/07 08:48:33;;;;;;;8.05;1.98;;;;;;;;;;5113132;28;20043;-68
2022/12/07 08:51:01;;;;;;;10.02;1.45;;;;;;;;;;5112306;28;20082;-68
2022/12/07 08:53:29;;;;;;;7.55;1.20;;;;;;;;;;5111793;27;20100;-68
2022/12/07 08:55:56;;;;;;;3.58;0.95;;;;;;;;;;5111433;28;20075;-68
2022/12/07 08:58:23;;;;;;;12.65;1.50;;;;;;;;;;5109638;28;20551;-69
2022/12/07 09:00:50;;;;;;;7.45;1.50;;;;;;;;;;5114540;28;20035;-69
2022/12/07 09:03:16;;;;;;;10.18;1.75;;;;;;;;;;5113172;28;20046;-68
2022/12/07 09:05:42;;;;;;;9.18;1.58;;;;;;;;;;5100943;28;20035;-68
2022/12/07 09:08:08;;;;;;;9.13;1.90;;;;;;;;;;5112012;28;20496;-70
2022/12/07 09:10:34;;;;;;;6.00;1.60;;;;;;;;;;5110383;28;20048;-71
2022/12/07 09:13:00;;;;;;;7.90;1.75;;;;;;;;;;5110880;28;20047;-69
2022/12/07 09:15:31;;;;;;;8.55;1.58;;;;;;;;;;5111971;28;20031;-69
2022/12/07 09:17:57;;;;;;;9.52;1.77;;;;;;;;;;5109266;28;20047;-67
2022/12/07 09:20:23;;;;;;;7.22;1.48;;;;;;;;;;5112426;28;20543;-66
2022/12/07 09:22:49;;;;;;;8.25;1.50;;;;;;;;;;5112364;28;20035;-67
2022/12/07 09:25:15;;;;;;;9.43;1.77;;;;;;;;;;5109923;28;20032;-68
2022/12/07 09:27:41;;;;;;;9.43;1.88;;;;;;;;;;5111133;28;20523;-68
2022/12/07 09:30:08;;;;;;;10.20;1.92;;;;;;;;;;5109794;28;20478;-68
2022/12/07 09:32:33;;;;;;;5.45;1.60;;;;;;;;;;5112447;28;20047;-67
2022/12/07 09:35:00;;;;;;;8.85;1.20;;;;;;;;;;5112160;28;20478;-67
2022/12/07 09:37:26;;;;;;;9.68;1.75;;;;;;;;;;5108828;28;20079;-67
2022/12/07 09:39:52;;;;;;;10.23;1.95;;;;;;;;;;5110381;28;20563;-67
2022/12/07 09:42:33;;;;;;;6.10;1.73;;;;;;;;;;5108716;28;20039;-67
2022/12/07 09:44:59;;;;;;;8.77;1.88;;;;;;;;;;5111491;28;20058;-67
2022/12/07 09:47:25;;;;;;;7.80;1.67;;;;;;;;;;5111292;28;20054;-66
2022/12/07 09:49:51;;;;;;;11.15;3.03;;;;;;;;;;5111533;28;20047;-68
2022/12/07 09:52:18;;;;;;;9.98;2.08;;;;;;;;;;5110839;28;20125;-68
2022/12/07 09:54:46;;;;;;;5.32;1.15;;;;;;;;;;5110171;28;20513;-68
2022/12/07 09:57:12;;;;;;;7.78;1.40;;;;;;;;;;5111411;28;20035;-67
2022/12/07 09:59:40;;;;;;;9.00;1.80;;;;;;;;;;5111723;28;20039;-68
2022/12/07 10:02:35;;;;;;;7.32;1.63;;;;;;;;;;5110064;28;20074;-68
2022/12/07 10:05:01;;;;;;;12.68;2.45;;;;;;;;;;5111127;28;20126;-68
2022/12/07 10:07:27;;;;;;;6.82;1.38;;;;;;;;;;5111201;28;20043;-67
2022/12/07 10:09:53;;;;;;;6.82;1.38;;;;;;;;;;5111204;28;20094;-68
2022/12/07 10:12:19;;;;;;;9.50;1.38;;;;;;;;;;5111524;28;20044;-68
2022/12/07 10:15:06;;;;;;;13.13;2.35;;;;;;;;;;5109809;28;20055;-68
2022/12/07 10:17:36;;;;;;;9.32;2.55;;;;;;;;;;5111337;28;20048;-69
2022/12/07 10:20:21;;;;;;;8.45;1.92;;;;;;;;;;5110513;28;20117;-68
2022/12/07 10:23:01;;;;;;;9.95;1.67;;;;;;;;;;5109717;28;20035;-67
2022/12/07 10:25:29;;;;;;;10.07;1.50;;;;;;;;;;5109316;28;20085;-67
2022/12/07 10:28:00;;;;;;;5.40;1.30;;;;;;;;;;5108985;28;20040;-68
2022/12/07 10:30:26;;;;;;;5.07;1.50;;;;;;;;;;5111074;28;20122;-67
2022/12/07 10:32:52;;;;;;;6.05;1.13;;;;;;;;;;5111503;28;20550;-67
2022/12/07 10:35:21;;;;;;;10.68;1.65;;;;;;;;;;5110702;28;20038;-64
2022/12/07 10:37:47;;;;;;;7.93;1.10;;;;;;;;;;5110730;28;20040;-64
2022/12/07 10:40:28;;;;;;;7.90;1.40;;;;;;;;;;5111032;28;20093;-65
2022/12/07 10:43:02;;;;;;;11.77;1.75;;;;;;;;;;5108419;28;20032;-66
2022/12/07 10:45:28;;;;;;;6.90;1.63;;;;;;;;;;5104953;28;20039;-65
2022/12/07 10:48:06;;;;;;;9.70;2.13;;;;;;;;;;5107871;28;20482;-65
2022/12/07 10:50:35;;;;;;;8.48;1.90;;;;;;;;;;5099742;28;20154;-65
2022/12/07 10:53:07;;;;;;;7.18;1.30;;;;;;;;;;5106424;28;20031;-65
2022/12/07 10:55:52;;;;;;;7.43;1.77;;;;;;;;;;5107955;28;20028;-65
2022/12/07 10:58:32;;;;;;;5.70;1.25;;;;;;;;;;5108006;28;20032;-65
2022/12/07 11:01:05;;;;;;;7.88;1.27;;;;;;;;;;5105130;28;20486;-65
2022/12/07 11:03:40;;;;;;;9.98;1.60;;;;;;;;;;5106763;28;20051;-66
2022/12/07 11:06:29;;;;;;;6.47;1.10;;;;;;;;;;5108177;28;20123;-66
2022/12/07 11:09:21;;;;;;;5.10;1.10;;;;;;;;;;5097872;28;20036;-65
2022/12/07 11:11:50;;;;;;;9.18;2.47;;;;;;;;;;5100817;28;20090;-66
2022/12/07 11:14:55;;;;;;;3.97;1.20;;;;;;;;;;5097532;28;20047;-66
2022/12/07 11:17:35;;;;;;;7.13;1.50;;;;;;;;;;5065482;28;20056;-65
2022/12/07 11:20:02;;;;;;;11.23;1.85;;;;;;;;;;5064791;28;20074;-66
2022/12/07 11:22:47;;;;;;;7.88;1.48;;;;;;;;;;5080625;28;20139;-65
2022/12/07 11:25:29;;;;;;;7.03;1.65;;;;;;;;;;5105588;28;20046;-65
2022/12/07 11:27:55;;;;;;;7.07;1.50;;;;;;;;;;5098390;28;20536;-65
2022/12/07 11:30:39;;;;;;;6.65;1.73;;;;;;;;;;5103939;28;20188;-65
2022/12/07 11:33:13;;;;;;;5.88;1.80;;;;;;;;;;5100659;28;20172;-66
2022/12/07 11:35:42;;;;;;;6.80;1.55;;;;;;;;;;5110426;28;20040;-65
2022/12/07 11:38:12;;;;;;;7.72;1.80;;;;;;;;;;5110174;28;20035;-65
2022/12/07 11:40:39;;;;;;;5.95;1.40;;;;;;;;;;5108826;28;20032;-66
2022/12/07 11:43:11;;;;;;;7.93;1.45;;;;;;;;;;5112449;28;20035;-66
2022/12/07 11:45:38;;;;;;;8.82;1.77;;;;;;;;;;5104788;28;20066;-66
2022/12/07 11:48:15;;;;;;;3.88;1.60;;;;;;;;;;5111968;28;20469;-66
2022/12/07 11:50:43;;;;;;;5.07;1.23;;;;;;;;;;5113641;28;20431;-64
2022/12/07 11:53:09;;;;;;;6.70;1.48;;;;;;;;;;5107333;28;20047;-65
2022/12/07 11:55:52;;;;;;;13.52;1.55;;;;;;;;;;5109981;28;20039;-66
2022/12/07 11:58:18;;;;;;;5.72;1.23;;;;;;;;;;5099850;28;20080;-66
2022/12/07 12:00:44;;;;;;;8.43;1.40;;;;;;;;;;5105709;28;20044;-66
2022/12/07 12:03:13;;;;;;;6.25;1.38;;;;;;;;;;5107767;28;20061;-66
2022/12/07 12:05:39;;;;;;;7.25;1.38;;;;;;;;;;5096037;28;20044;-66
2022/12/07 12:08:18;;;;;;;8.27;1.70;;;;;;;;;;5113945;28;20161;-66
2022/12/07 12:10:55;;;;;;;6.55;1.23;;;;;;;;;;5095103;28;20040;-66
2022/12/07 12:13:25;;;;;;;6.95;1.70;;;;;;;;;;5113664;28;20035;-66
2022/12/07 12:16:10;;;;;;;7.35;1.30;;;;;;;;;;5113881;28;20035;-66
2022/12/07 12:18:49;;;;;;;12.40;1.63;;;;;;;;;;5113445;28;20525;-66
2022/12/07 12:21:18;;;;;;;13.13;1.65;;;;;;;;;;5099029;28;20442;-66
2022/12/07 12:23:44;;;;;;;7.82;1.67;;;;;;;;;;5113952;28;20043;-66
2022/12/07 12:26:30;;;;;;;14.05;1.58;;;;;;;;;;5112576;28;20039;-66
2022/12/07 12:28:59;;;;;;;5.47;1.55;;;;;;;;;;5113064;28;20046;-66
2022/12/07 12:31:28;;;;;;;11.55;1.70;;;;;;;;;;5112756;28;20051;-66
2022/12/07 12:33:55;;;;;;;4.93;1.08;;;;;;;;;;5113656;28;20042;-66
2022/12/07 12:36:21;;;;;;;4.78;1.17;;;;;;;;;;5112873;28;20040;-66
2022/12/07 12:38:59;;;;;;;6.57;1.10;;;;;;;;;;5113445;28;20035;-65
2022/12/07 12:42:05;;;;;;;7.40;1.33;;;;;;;;;;5111590;28;20067;-65
2022/12/07 12:44:29;;;;;;;11.23;1.40;;;;;;;;;;5110564;28;20097;-66
2022/12/07 12:46:57;;;;;;;7.25;1.40;;;;;;;;;;5109446;28;20093;-66
2022/12/07 12:49:23;;;;;;;6.03;1.30;;;;;;;;;;5103821;28;20725;-66
2022/12/07 12:51:53;;;;;;;7.45;1.25;;;;;;;;;;5112375;28;20034;-66
2022/12/07 12:54:21;;;;;;;5.40;1.35;;;;;;;;;;5112900;28;20112;-65
2022/12/07 12:57:05;;;;;;;5.03;1.27;;;;;;;;;;5112542;28;20080;-65
2022/12/07 12:59:36;;;;;;;6.40;1.27;;;;;;;;;;5112382;28;20032;-65
2022/12/07 13:02:41;;;;;;;5.32;0.90;;;;;;;;;;5112129;28;20609;-65
2022/12/07 13:05:07;;;;;;;8.18;1.38;;;;;;;;;;5028150;28;20041;-65
2022/12/07 13:07:51;;;;;;;3.17;0.52;;;;;;;;;;5022347;28;20064;-65
2022/12/07 13:10:23;;;;;;;2.00;0.63;;;;;;;;;;5075879;28;20490;-65
2022/12/07 13:13:08;;;;;;;2.30;0.52;;;;;;;;;;5111191;28;20040;-65
2022/12/07 13:15:40;;;;;;;4.78;1.23;;;;;;;;;;5112309;28;20092;-65
2022/12/07 13:18:25;;;;;;;3.70;0.80;;;;;;;;;;5112112;28;20048;-65
2022/12/07 13:21:23;;;;;;;2.88;0.52;;;;;;;;;;5111978;28;20055;-65
2022/12/07 13:23:50;;;;;;;2.70;0.55;;;;;;;;;;5109972;28;20043;-65
2022/12/07 13:26:34;;;;;;;4.30;0.50;;;;;;;;;;5095691;28;20035;-65
2022/12/07 13:29:16;;;;;;;1.92;0.40;;;;;;;;;;5109211;28;20036;-66
2022/12/07 13:31:42;;;;;;;;;;;;;;;;;;5112983;28;20032;-66
2022/12/07 13:34:27;;;;;;;2.78;0.45;;;;;;;;;;5112286;28;19933;-66
2022/12/07 13:36:53;;;;;;;0.63;0.35;;;;;;;;;;5112413;28;20547;-66
2022/12/07 13:39:19;;;;;;;2.20;0.80;;;;;;;;;;5112306;28;20040;-66
2022/12/07 13:41:50;;;;;;;4.68;0.60;;;;;;;;;;5112219;28;20088;-66
2022/12/07 13:44:16;;;;;;;2.60;0.38;;;;;;;;;;5110251;28;20047;-66
2022/12/07 13:47:01;;;;;;;3.42;0.50;;;;;;;;;;5108137;28;20114;-65
2022/12/07 13:49:29;;;;;;;3.72;0.50;;;;;;;;;;5096947;28;20126;-65
2022/12/07 13:51:55;;;;;;;2.40;0.90;;;;;;;;;;5112104;28;20043;-66
2022/12/07 13:54:22;;;;;;;2.53;1.00;;;;;;;;;;5111311;28;20040;-66
2022/12/07 13:56:50;;;;;;;4.57;1.20;;;;;;;;;;5111412;28;20123;-66
2022/12/07 13:59:17;;;;;;;3.60;0.90;;;;;;;;;;5094081;28;20367;-65
2022/12/07 14:01:46;;;;;;;2.45;0.50;;;;;;;;;;5107107;28;20040;-65
2022/12/07 14:04:28;;;;;;;3.25;0.82;;;;;;;;;;5106874;28;20048;-65
2022/12/07 14:06:54;;;;;;;2.67;0.57;;;;;;;;;;5100003;28;20093;-65
2022/12/07 14:09:22;;;;;;;3.42;0.80;;;;;;;;;;5110753;28;20032;-65
2022/12/07 14:11:49;;;;;;;3.05;1.05;;;;;;;;;;5111075;28;20051;-65
2022/12/07 14:14:20;;;;;;;2.15;0.80;;;;;;;;;;5111380;28;20512;-65
2022/12/07 14:16:56;;;;;;;4.43;0.90;;;;;;;;;;5111773;28;20387;-65
2022/12/07 14:19:42;;;;;;;2.40;0.68;;;;;;;;;;5093268;28;20055;-66
2022/12/07 14:22:09;;;;;;;3.83;0.77;;;;;;;;;;5109024;28;20517;-65
2022/12/07 14:24:44;;;;;;;5.28;1.30;;;;;;;;;;5100824;28;20047;-65
2022/12/07 14:27:17;;;;;;;7.05;1.30;;;;;;;;;;5106714;28;20455;-65
2022/12/07 14:29:44;;;;;;;2.15;0.95;;;;;;;;;;5098170;28;20192;-64
2022/12/07 14:32:20;;;;;;;7.03;1.10;;;;;;;;;;4478236;27;10001321;-65
2022/12/07 14:34:55;;;;;;;5.05;0.77;;;;;;;;;;5044365;28;20045;-67
2022/12/07 14:37:21;;;;;;;6.13;1.25;;;;;;;;;;5049545;28;20041;-67
2022/12/07 14:39:47;;;;;;;3.17;0.70;;;;;;;;;;5050893;28;20068;-66
2022/12/07 14:42:13;;;;;;;4.68;0.95;;;;;;;;;;5035864;28;20034;-68
2022/12/07 14:44:39;;;;;;;4.68;0.93;;;;;;;;;;5043753;28;20040;-66
2022/12/07 14:47:05;;;;;;;5.05;0.82;;;;;;;;;;5050723;28;20041;-66
2022/12/07 14:49:31;;;;;;;3.58;0.75;;;;;;;;;;5050562;28;20052;-65
2022/12/07 14:51:58;;;;;;;4.40;0.70;;;;;;;;;;5050249;28;20036;-66
2022/12/07 14:54:26;;;;;;;1.55;0.70;;;;;;;;;;5049878;28;20044;-67
2022/12/07 14:56:53;;;;;;;4.00;1.05;;;;;;;;;;5050494;28;20050;-66
2022/12/07 14:59:19;;;;;;;5.68;0.95;;;;;;;;;;5029793;28;20523;-65